Miguel Oliver — ECLX — position and weather

sailwx.info

Track history (hours):
 
Tides and Currents Weather Stations Pressure Air Temp Water Temp Dewpoint Dewpoint Depression Visibility Wind Speed Wind Dir Waves Ship Positions

Oceanographic research ship Miguel Oliver (Spain)

Ship's website: http://www.mapa.es/es/pesca/pags/miguel_web/index.htm

Last reported at 2020-Aug-10 00:30 UTC. Time now 2020-Aug-10 02:24 UTC.
Position N 36°52' W 007°58'.

Length 70 m; draft 6 m.

Type: Other ship. MMSI: 225322000.

Date/timePositionNaut miles runAvg speedWind from/ knotsBaromVisibWave heightAir tempDewpointWater temp
2020-Aug-10 00:30N 36°52' W 007°58'3 3.2
2020-Aug-09 23:30N 36°49' W 007°58'6 1.9
2020-Aug-09 20:00N 36°43' W 007°54'12 7.6
2020-Aug-09 18:27N 36°54' W 007°47'2 0.8
2020-Aug-09 16:21N 36°55' W 007°47'1 0.3
2020-Aug-09 10:58N 36°57' W 007°47'2 1.3
2020-Aug-09 09:30N 36°56' W 007°45'8 2.9
2020-Aug-09 06:49N 37°01' W 007°39'2 1.4
2020-Aug-09 05:22N 37°03' W 007°37'13 2.3
2020-Aug-08 23:30N 36°52' W 007°46'13 2.1
2020-Aug-08 17:20N 37°02' W 007°36'19 1.1
2020-Aug-08 00:41N 36°45' W 007°26'3 3.3
2020-Aug-07 23:37N 36°46' W 007°22'  
2020-Aug-04 20:45N 36°40' W 006°55'11 0.5
2020-Aug-03 22:21N 36°29' W 006°56'17 3.4
2020-Aug-03 17:30N 36°39' W 006°39'3 3.2
2020-Aug-03 16:30N 36°41' W 006°36'4 3.9
2020-Aug-03 15:30N 36°43' W 006°32'24 3.7
2020-Aug-03 09:08N 36°19' W 006°33'4 0.7
2020-Aug-03 03:30N 36°15' W 006°34'13 3.7
2020-Aug-03 00:01N 36°19' W 006°49'26 4.0
2020-Aug-02 17:30N 36°26' W 006°19'8 8.0
2020-Aug-02 16:30N 36°19' W 006°16'12 3.7
2020-Aug-02 13:15N 36°12' W 006°29'3 9.9
2020-Aug-02 12:59N 36°10' W 006°32'0 0.3
2020-Aug-02 12:26N 36°10' W 006°32'4 1.8
2020-Aug-02 10:30N 36°07' W 006°34'5 9.4
2020-Aug-02 10:00N 36°03' W 006°30'15 4.4
2020-Aug-02 06:30N 36°10' W 006°14'2 1.6
2020-Aug-02 05:00N 36°13' W 006°12'3 6.9
2020-Aug-02 04:30N 36°12' W 006°17'5 9.3
2020-Aug-02 04:00N 36°11' W 006°22'9 9.2
2020-Aug-02 03:00N 36°11' W 006°34'6 5.9
2020-Aug-02 02:00N 36°10' W 006°41'0 0.0
2020-Aug-02 01:00N 36°10' W 006°41'7 2.8
2020-Aug-01 22:30N 36°14' W 006°34'22 2.5
2020-Aug-01 13:39N 36°30' W 006°16'0 0.0
2020-Aug-01 11:30N 36°30' W 006°16'0 0.0
2020-Jul-31 21:20N 36°30' W 006°16'  
Track history (hours):
 
Tides and Currents Weather Stations Pressure Air Temp Water Temp Dewpoint Dewpoint Depression Visibility Wind Speed Wind Dir Waves Ship Positions

Oceanographic research ship Miguel Oliver (Spain)

Ship's website: http://www.mapa.es/es/pesca/pags/miguel_web/index.htm

Last reported at 2020-Aug-10 00:30 UTC. Time now 2020-Aug-10 02:24 UTC.
Position N 36°52' W 007°58'.

Length 70 m; draft 6 m.

Type: Other ship. MMSI: 225322000.

Date/timePositionNaut miles runAvg speedWind from/ knotsBaromVisibWave heightAir tempDewpointWater temp
2020-Aug-10 00:30N 36°52' W 007°58'3 3.2
2020-Aug-09 23:30N 36°49' W 007°58'6 1.9
2020-Aug-09 20:00N 36°43' W 007°54'12 7.6
2020-Aug-09 18:27N 36°54' W 007°47'2 0.8
2020-Aug-09 16:21N 36°55' W 007°47'1 0.3
2020-Aug-09 10:58N 36°57' W 007°47'2 1.3
2020-Aug-09 09:30N 36°56' W 007°45'8 2.9
2020-Aug-09 06:49N 37°01' W 007°39'2 1.4
2020-Aug-09 05:22N 37°03' W 007°37'13 2.3
2020-Aug-08 23:30N 36°52' W 007°46'13 2.1
2020-Aug-08 17:20N 37°02' W 007°36'19 1.1
2020-Aug-08 00:41N 36°45' W 007°26'3 3.3
2020-Aug-07 23:37N 36°46' W 007°22'  
2020-Aug-04 20:45N 36°40' W 006°55'11 0.5
2020-Aug-03 22:21N 36°29' W 006°56'17 3.4
2020-Aug-03 17:30N 36°39' W 006°39'3 3.2
2020-Aug-03 16:30N 36°41' W 006°36'4 3.9
2020-Aug-03 15:30N 36°43' W 006°32'24 3.7
2020-Aug-03 09:08N 36°19' W 006°33'4 0.7
2020-Aug-03 03:30N 36°15' W 006°34'13 3.7
2020-Aug-03 00:01N 36°19' W 006°49'26 4.0
2020-Aug-02 17:30N 36°26' W 006°19'8 8.0
2020-Aug-02 16:30N 36°19' W 006°16'12 3.7
2020-Aug-02 13:15N 36°12' W 006°29'3 9.9
2020-Aug-02 12:59N 36°10' W 006°32'0 0.3
2020-Aug-02 12:26N 36°10' W 006°32'4 1.8
2020-Aug-02 10:30N 36°07' W 006°34'5 9.4
2020-Aug-02 10:00N 36°03' W 006°30'15 4.4
2020-Aug-02 06:30N 36°10' W 006°14'2 1.6
2020-Aug-02 05:00N 36°13' W 006°12'3 6.9
2020-Aug-02 04:30N 36°12' W 006°17'5 9.3
2020-Aug-02 04:00N 36°11' W 006°22'9 9.2
2020-Aug-02 03:00N 36°11' W 006°34'6 5.9
2020-Aug-02 02:00N 36°10' W 006°41'0 0.0
2020-Aug-02 01:00N 36°10' W 006°41'7 2.8
2020-Aug-01 22:30N 36°14' W 006°34'22 2.5
2020-Aug-01 13:39N 36°30' W 006°16'0 0.0
2020-Aug-01 11:30N 36°30' W 006°16'0 0.0
2020-Jul-31 21:20N 36°30' W 006°16'  

Dump ship's entire track history